createdAt,value
2017-07-19T00:00:08.087Z,7.49
2017-07-19T00:00:36.166Z,7.61
2017-07-19T00:01:04.266Z,7.63
2017-07-19T00:01:32.521Z,7.55
2017-07-19T00:02:00.690Z,7.56
2017-07-19T00:02:28.812Z,7.56
2017-07-19T00:02:57.036Z,7.52
2017-07-19T00:03:25.160Z,7.68
2017-07-19T00:03:53.306Z,7.55
2017-07-19T00:04:21.389Z,7.67
2017-07-19T00:04:49.456Z,7.56
2017-07-19T00:05:17.528Z,7.59
2017-07-19T00:05:45.559Z,7.64
2017-07-19T00:06:13.812Z,7.63
2017-07-19T00:06:41.985Z,7.59
2017-07-19T00:07:10.121Z,7.68
2017-07-19T00:07:38.352Z,7.67
2017-07-19T00:08:06.559Z,7.67
2017-07-19T00:08:34.653Z,7.59
2017-07-19T00:09:02.886Z,7.55
2017-07-19T00:09:31.054Z,7.63
2017-07-19T00:09:59.263Z,7.67
2017-07-19T00:10:27.352Z,7.64
2017-07-19T00:10:55.563Z,7.63
2017-07-19T00:11:23.812Z,7.59
2017-07-19T00:11:52.094Z,7.59
2017-07-19T00:12:20.195Z,7.63
2017-07-19T00:12:48.402Z,7.55
2017-07-19T00:13:16.418Z,7.59
2017-07-19T00:13:44.627Z,7.67
2017-07-19T00:14:12.807Z,7.64
2017-07-19T00:14:41.036Z,7.73
2017-07-19T00:15:09.187Z,7.73
2017-07-19T00:15:37.271Z,7.61
2017-07-19T00:16:05.410Z,7.74
2017-07-19T00:16:33.816Z,7.68
2017-07-19T00:17:01.928Z,7.73
2017-07-19T00:17:30.024Z,7.67
2017-07-19T00:17:58.209Z,7.73
2017-07-19T00:18:26.344Z,7.67
2017-07-19T00:18:54.384Z,7.71
2017-07-19T00:19:22.592Z,7.68
2017-07-19T00:19:50.700Z,7.71
2017-07-19T00:20:18.752Z,7.73
2017-07-19T00:20:46.895Z,7.71
2017-07-19T00:21:15.055Z,7.74
2017-07-19T00:21:43.355Z,7.68
2017-07-19T00:22:11.576Z,7.75
2017-07-19T00:22:39.681Z,7.75
2017-07-19T00:23:07.786Z,7.7
2017-07-19T00:23:35.991Z,7.75
2017-07-19T00:24:04.173Z,7.78
2017-07-19T00:24:32.312Z,7.77
2017-07-19T00:25:00.386Z,7.82
2017-07-19T00:25:28.471Z,7.8
2017-07-19T00:25:56.764Z,7.86
2017-07-19T00:26:24.905Z,7.82
2017-07-19T00:26:53.097Z,7.78
2017-07-19T00:27:21.322Z,7.89
2017-07-19T00:27:49.451Z,7.78
2017-07-19T00:28:17.632Z,7.89
2017-07-19T00:28:45.694Z,7.88
2017-07-19T00:29:13.825Z,7.91
2017-07-19T00:29:42.042Z,7.83
2017-07-19T00:30:10.184Z,7.92
2017-07-19T00:30:38.402Z,7.91
2017-07-19T00:31:06.355Z,7.83
2017-07-19T00:31:34.493Z,7.86
2017-07-19T00:32:02.827Z,7.88
2017-07-19T00:32:30.912Z,7.92
2017-07-19T00:32:59.092Z,7.83
2017-07-19T00:33:27.131Z,7.89
2017-07-19T00:33:55.272Z,7.99
2017-07-19T00:34:23.489Z,8.01
2017-07-19T00:34:51.624Z,7.95
2017-07-19T00:35:19.846Z,7.91
2017-07-19T00:35:47.995Z,7.91
2017-07-19T00:36:16.155Z,7.93
2017-07-19T00:36:44.229Z,7.93
2017-07-19T00:37:12.410Z,7.89
2017-07-19T00:37:40.643Z,7.92
2017-07-19T00:38:08.809Z,7.96
2017-07-19T00:38:36.880Z,7.96
2017-07-19T00:39:05.051Z,7.95
2017-07-19T00:39:33.254Z,7.93
2017-07-19T00:40:01.360Z,7.95
2017-07-19T00:40:29.591Z,7.95
2017-07-19T00:40:57.711Z,7.95
2017-07-19T00:41:25.963Z,7.98
2017-07-19T00:41:54.362Z,7.95
2017-07-19T00:42:22.580Z,8.04
2017-07-19T00:42:50.662Z,7.99
2017-07-19T00:43:18.877Z,8.07
2017-07-19T00:43:47.078Z,8.07
2017-07-19T00:44:15.325Z,8.09
2017-07-19T00:44:43.488Z,8.04
2017-07-19T00:45:11.698Z,8.09
2017-07-19T00:45:39.842Z,8.06
2017-07-19T00:46:07.980Z,8.11
2017-07-19T00:46:36.213Z,8.11
2017-07-19T00:47:04.596Z,8.04
2017-07-19T00:47:32.751Z,8.06
2017-07-19T00:48:01.025Z,8.09
2017-07-19T00:48:29.277Z,8.07
2017-07-19T00:48:57.313Z,8.09
2017-07-19T00:49:25.558Z,8.03
2017-07-19T00:49:53.644Z,8.03
2017-07-19T00:50:21.790Z,8.09
2017-07-19T00:50:50.031Z,8.09
2017-07-19T00:51:18.138Z,8.06
2017-07-19T00:51:46.272Z,8.1
2017-07-19T00:52:14.704Z,8.04
2017-07-19T00:52:42.852Z,8.19
2017-07-19T00:53:10.973Z,8.13
2017-07-19T00:53:39.126Z,8.14
2017-07-19T00:54:07.371Z,8.09
2017-07-19T00:54:35.573Z,8.04
2017-07-19T00:55:03.737Z,8.11
2017-07-19T00:55:32.001Z,8.13
2017-07-19T00:56:00.162Z,8.09
2017-07-19T00:56:28.344Z,8.06
2017-07-19T00:56:56.522Z,8.09
2017-07-19T00:57:24.881Z,8.13
2017-07-19T00:57:53.014Z,8.17
2017-07-19T00:58:21.099Z,8.11
2017-07-19T00:58:49.334Z,8.1
2017-07-19T00:59:17.586Z,8.17
2017-07-19T00:59:45.665Z,8.09
2017-07-19T01:00:13.782Z,8.07
2017-07-19T01:00:41.894Z,8.16
2017-07-19T01:01:10.135Z,8.1
2017-07-19T01:01:38.296Z,8.09
2017-07-19T01:02:06.512Z,8.11
2017-07-19T01:02:34.773Z,8.16
2017-07-19T01:03:02.980Z,8.13
2017-07-19T01:03:31.098Z,8.14
2017-07-19T01:03:59.196Z,8.13
2017-07-19T01:04:27.348Z,8.09
2017-07-19T01:04:55.508Z,8.13
2017-07-19T01:05:23.687Z,8.14
2017-07-19T01:05:51.799Z,8.16
2017-07-19T01:06:19.969Z,8.17
2017-07-19T01:06:48.126Z,8.17
2017-07-19T01:07:16.420Z,8.21
2017-07-19T01:07:44.634Z,8.19
2017-07-19T01:08:12.723Z,8.24
2017-07-19T01:08:40.758Z,8.25
2017-07-19T01:09:08.970Z,8.22
2017-07-19T01:09:37.083Z,8.26
2017-07-19T01:10:05.223Z,8.25
2017-07-19T01:10:33.346Z,8.26
2017-07-19T01:11:01.567Z,8.28
2017-07-19T01:11:29.696Z,8.34
2017-07-19T01:11:58.001Z,8.28
2017-07-19T01:12:26.171Z,8.28
2017-07-19T01:12:54.274Z,8.28
2017-07-19T01:13:22.492Z,8.25
2017-07-19T01:13:50.701Z,8.24
2017-07-19T01:14:18.917Z,8.29
2017-07-19T01:14:47.098Z,8.28
2017-07-19T01:15:15.326Z,8.29
2017-07-19T01:15:43.549Z,8.32
2017-07-19T01:16:11.604Z,8.29
2017-07-19T01:16:39.739Z,8.28
2017-07-19T01:17:07.988Z,8.32
2017-07-19T01:17:36.382Z,8.32
2017-07-19T01:18:04.521Z,8.34
2017-07-19T01:18:32.737Z,8.34
2017-07-19T01:19:00.931Z,8.35
2017-07-19T01:19:29.160Z,8.32
2017-07-19T01:19:57.135Z,8.35
2017-07-19T01:20:25.266Z,8.34
2017-07-19T01:20:53.255Z,8.28
2017-07-19T01:21:21.453Z,8.34
2017-07-19T01:21:49.658Z,8.31
2017-07-19T01:22:17.705Z,8.29
2017-07-19T01:22:45.962Z,8.25
2017-07-19T01:23:14.065Z,8.26
2017-07-19T01:23:42.163Z,8.31
2017-07-19T01:24:10.190Z,8.28
2017-07-19T01:24:38.411Z,8.26
2017-07-19T01:25:06.519Z,8.35
2017-07-19T01:25:34.680Z,8.28
2017-07-19T01:26:02.937Z,8.29
2017-07-19T01:26:31.125Z,8.32
2017-07-19T01:26:59.266Z,8.29
2017-07-19T01:27:27.542Z,8.28
2017-07-19T01:27:55.762Z,8.25
2017-07-19T01:28:23.938Z,8.35
2017-07-19T01:28:52.144Z,8.31
2017-07-19T01:29:20.432Z,8.28
2017-07-19T01:29:48.566Z,8.28
2017-07-19T01:30:16.643Z,8.32
2017-07-19T01:30:44.896Z,8.26
2017-07-19T01:31:13.157Z,8.31
2017-07-19T01:31:41.394Z,8.26
2017-07-19T01:32:09.608Z,8.31
2017-07-19T01:32:37.919Z,8.32
2017-07-19T01:33:06.209Z,8.34
2017-07-19T01:33:34.325Z,8.35
2017-07-19T01:34:02.431Z,8.35
2017-07-19T01:34:30.593Z,8.29
2017-07-19T01:34:58.810Z,8.29
2017-07-19T01:35:27.036Z,8.35
2017-07-19T01:35:54.974Z,8.32
2017-07-19T01:36:22.943Z,8.32
2017-07-19T01:36:51.106Z,8.32
2017-07-19T01:37:19.172Z,8.35
2017-07-19T01:37:47.488Z,8.34
2017-07-19T01:38:15.699Z,8.32
2017-07-19T01:38:43.892Z,8.35
2017-07-19T01:39:12.093Z,8.29
2017-07-19T01:39:40.217Z,8.31
2017-07-19T01:40:08.371Z,8.35
2017-07-19T01:40:36.595Z,8.35
2017-07-19T01:41:04.804Z,8.32
2017-07-19T01:41:33.030Z,8.32
2017-07-19T01:42:01.242Z,8.29
2017-07-19T01:42:29.365Z,8.29
2017-07-19T01:42:57.615Z,8.34
2017-07-19T01:43:26.508Z,8.32
2017-07-19T01:43:54.583Z,8.31
2017-07-19T01:44:22.710Z,8.29
2017-07-19T01:44:50.826Z,8.36
2017-07-19T01:45:18.859Z,8.36
2017-07-19T01:45:46.915Z,8.31
2017-07-19T01:46:15.134Z,8.35
2017-07-19T01:46:43.277Z,8.36
2017-07-19T01:47:11.512Z,8.36
2017-07-19T01:47:39.720Z,8.31
2017-07-19T01:48:07.898Z,8.36
2017-07-19T01:48:35.936Z,8.34
2017-07-19T01:49:04.124Z,8.35
2017-07-19T01:49:32.327Z,8.34
2017-07-19T01:50:00.575Z,8.44
2017-07-19T01:50:28.769Z,8.46
2017-07-19T01:50:56.968Z,8.4
2017-07-19T01:51:25.094Z,8.44
2017-07-19T01:51:53.183Z,8.49
2017-07-19T01:52:21.404Z,8.49
2017-07-19T01:52:49.684Z,8.42
2017-07-19T01:53:17.869Z,8.52
2017-07-19T01:53:46.033Z,8.4
2017-07-19T01:54:14.151Z,8.5
2017-07-19T01:54:42.302Z,8.5
2017-07-19T01:55:10.506Z,8.44
2017-07-19T01:55:38.650Z,8.46
2017-07-19T01:56:06.837Z,8.49
2017-07-19T01:56:34.932Z,8.47
2017-07-19T01:57:03.140Z,8.42
2017-07-19T01:57:31.196Z,8.47
2017-07-19T01:57:59.490Z,8.44
2017-07-19T01:58:27.587Z,8.49
2017-07-19T01:58:55.722Z,8.49
2017-07-19T01:59:23.723Z,8.5
2017-07-19T01:59:51.813Z,8.46
2017-07-19T02:00:20.016Z,8.5
2017-07-19T02:00:48.172Z,8.44
2017-07-19T02:01:16.393Z,8.47
2017-07-19T02:01:44.415Z,8.5
2017-07-19T02:02:12.493Z,8.46
2017-07-19T02:02:40.582Z,8.49
2017-07-19T02:03:08.869Z,8.43
2017-07-19T02:03:37.084Z,8.47
2017-07-19T02:04:05.279Z,8.44
2017-07-19T02:04:33.512Z,8.46
2017-07-19T02:05:01.709Z,8.47
2017-07-19T02:05:29.839Z,8.44
2017-07-19T02:05:57.785Z,8.49
2017-07-19T02:06:25.871Z,8.46
2017-07-19T02:06:53.925Z,8.46
2017-07-19T02:07:22.135Z,8.49
2017-07-19T02:07:50.483Z,8.4
2017-07-19T02:08:18.725Z,8.39
2017-07-19T02:08:46.920Z,8.43
2017-07-19T02:09:15.099Z,8.47
2017-07-19T02:09:43.318Z,8.46
2017-07-19T02:10:11.418Z,8.49
2017-07-19T02:10:39.529Z,8.47
2017-07-19T02:11:07.532Z,8.49
2017-07-19T02:11:35.568Z,8.5
2017-07-19T02:12:03.779Z,8.49
2017-07-19T02:12:32.037Z,8.44
2017-07-19T02:13:00.390Z,8.44
2017-07-19T02:13:28.563Z,8.46
2017-07-19T02:13:56.670Z,8.5
2017-07-19T02:14:24.753Z,8.57
2017-07-19T02:14:52.823Z,8.6
2017-07-19T02:15:20.944Z,8.5
2017-07-19T02:15:49.158Z,8.52
2017-07-19T02:16:17.356Z,8.47
2017-07-19T02:16:45.496Z,8.58
2017-07-19T02:17:13.632Z,8.6
2017-07-19T02:17:41.839Z,8.61
2017-07-19T02:18:10.222Z,8.67
2017-07-19T02:18:38.504Z,8.62
2017-07-19T02:19:06.629Z,8.54
2017-07-19T02:19:34.884Z,8.54
2017-07-19T02:20:03.010Z,8.52
2017-07-19T02:20:31.284Z,8.58
2017-07-19T02:20:59.440Z,8.58
2017-07-19T02:21:27.601Z,8.67
2017-07-19T02:21:55.690Z,8.64
2017-07-19T02:22:23.880Z,8.64
2017-07-19T02:22:52.056Z,8.54
2017-07-19T02:23:20.354Z,8.52
2017-07-19T02:23:48.480Z,8.58
2017-07-19T02:24:16.693Z,8.62
2017-07-19T02:24:44.920Z,8.52
2017-07-19T02:25:12.943Z,8.58
2017-07-19T02:25:41.058Z,8.54
2017-07-19T02:26:09.180Z,8.54
2017-07-19T02:26:37.392Z,8.61
2017-07-19T02:27:05.603Z,8.5
2017-07-19T02:27:33.687Z,8.52
2017-07-19T02:28:01.795Z,8.6
2017-07-19T02:28:30.259Z,8.52
2017-07-19T02:28:58.431Z,8.5
2017-07-19T02:29:26.696Z,8.6
2017-07-19T02:29:54.866Z,8.62
2017-07-19T02:30:22.956Z,8.62
2017-07-19T02:30:51.169Z,8.61
2017-07-19T02:31:19.208Z,8.54
2017-07-19T02:31:47.362Z,8.57
2017-07-19T02:32:15.402Z,8.62
2017-07-19T02:32:43.667Z,8.54
2017-07-19T02:33:11.911Z,8.6
2017-07-19T02:33:40.027Z,8.62
2017-07-19T02:34:08.057Z,8.64
2017-07-19T02:34:36.243Z,8.53
2017-07-19T02:35:04.467Z,8.62
2017-07-19T02:35:32.723Z,8.53
2017-07-19T02:36:00.873Z,8.54
2017-07-19T02:36:28.978Z,8.52
2017-07-19T02:36:57.069Z,8.62
2017-07-19T02:37:25.118Z,8.57
2017-07-19T02:37:53.327Z,8.61
2017-07-19T02:38:21.656Z,8.61
2017-07-19T02:38:49.819Z,8.61
2017-07-19T02:39:18.079Z,8.53
2017-07-19T02:39:46.233Z,8.62
2017-07-19T02:40:14.336Z,8.61
2017-07-19T02:40:42.489Z,8.54
2017-07-19T02:41:10.630Z,8.64
2017-07-19T02:41:38.846Z,8.67
2017-07-19T02:42:06.922Z,8.69
2017-07-19T02:42:34.956Z,8.62
2017-07-19T02:43:03.044Z,8.69
2017-07-19T02:43:31.181Z,8.65
2017-07-19T02:43:59.420Z,8.64
2017-07-19T02:44:27.517Z,8.71
2017-07-19T02:44:55.608Z,8.69
2017-07-19T02:45:23.798Z,8.67
2017-07-19T02:45:51.800Z,8.68
2017-07-19T02:46:20.065Z,8.67
2017-07-19T02:46:48.094Z,8.65
2017-07-19T02:47:16.246Z,8.64
2017-07-19T02:47:44.493Z,8.62
2017-07-19T02:48:12.513Z,8.67
2017-07-19T02:48:40.646Z,8.71
2017-07-19T02:49:08.765Z,8.69
2017-07-19T02:49:36.983Z,8.64
2017-07-19T02:50:05.113Z,8.71
2017-07-19T02:50:33.189Z,8.65
2017-07-19T02:51:01.323Z,8.67
2017-07-19T02:51:29.509Z,8.69
2017-07-19T02:51:57.767Z,8.69
2017-07-19T02:52:25.967Z,8.72
2017-07-19T02:52:54.077Z,8.67
2017-07-19T02:53:22.151Z,8.67
2017-07-19T02:53:50.345Z,8.69
2017-07-19T02:54:18.557Z,8.6
2017-07-19T02:54:46.755Z,8.67
2017-07-19T02:55:14.899Z,8.72
2017-07-19T02:55:43.028Z,8.68
2017-07-19T02:56:11.139Z,8.69
2017-07-19T02:56:39.303Z,8.77
2017-07-19T02:57:07.435Z,8.69
2017-07-19T02:57:35.572Z,8.74
2017-07-19T02:58:03.723Z,8.72
2017-07-19T02:58:32.009Z,8.69
2017-07-19T02:59:00.133Z,8.72
2017-07-19T02:59:28.316Z,8.72
2017-07-19T02:59:56.361Z,8.76
2017-07-19T03:00:24.593Z,8.79
2017-07-19T03:00:52.852Z,8.71
2017-07-19T03:01:21.008Z,8.74
2017-07-19T03:01:49.201Z,8.69
2017-07-19T03:02:17.436Z,8.76
2017-07-19T03:02:45.541Z,8.71
2017-07-19T03:03:13.795Z,8.79
2017-07-19T03:03:42.040Z,8.69
2017-07-19T03:04:10.243Z,8.72
2017-07-19T03:04:38.385Z,8.76
2017-07-19T03:05:06.576Z,8.72
2017-07-19T03:05:34.573Z,8.74
2017-07-19T03:06:02.740Z,8.76
2017-07-19T03:06:30.718Z,8.79
2017-07-19T03:06:58.839Z,8.74
2017-07-19T03:07:26.938Z,8.71
2017-07-19T03:07:55.082Z,8.76
2017-07-19T03:08:23.303Z,8.77
2017-07-19T03:08:51.618Z,8.74
2017-07-19T03:09:19.745Z,8.76
2017-07-19T03:09:47.851Z,8.79
2017-07-19T03:10:15.834Z,8.69
2017-07-19T03:10:43.968Z,8.76
2017-07-19T03:11:12.171Z,8.72
2017-07-19T03:11:40.293Z,8.76
2017-07-19T03:12:08.532Z,8.72
2017-07-19T03:12:36.746Z,8.69
2017-07-19T03:13:04.939Z,8.74
2017-07-19T03:13:33.113Z,8.69
2017-07-19T03:14:01.476Z,8.76
2017-07-19T03:14:29.683Z,8.72
2017-07-19T03:14:57.820Z,8.69
2017-07-19T03:15:26.009Z,8.71
2017-07-19T03:15:54.136Z,8.71
2017-07-19T03:16:22.346Z,8.69
2017-07-19T03:16:50.471Z,8.74
2017-07-19T03:17:18.560Z,8.61
2017-07-19T03:17:46.750Z,8.69
2017-07-19T03:18:14.958Z,8.62
2017-07-19T03:18:43.113Z,8.71
2017-07-19T03:19:11.317Z,8.74
2017-07-19T03:19:39.523Z,8.61
2017-07-19T03:20:07.777Z,8.69
2017-07-19T03:20:35.919Z,8.74
2017-07-19T03:21:04.138Z,8.61
2017-07-19T03:21:32.384Z,8.72
2017-07-19T03:22:00.367Z,8.61
2017-07-19T03:22:28.342Z,8.62
2017-07-19T03:22:56.383Z,8.6
2017-07-19T03:23:24.577Z,8.64
2017-07-19T03:23:52.748Z,8.71
2017-07-19T03:24:21.066Z,8.67
2017-07-19T03:24:49.257Z,8.64
2017-07-19T03:25:17.175Z,8.65
2017-07-19T03:25:45.312Z,8.68
2017-07-19T03:26:13.496Z,8.67
2017-07-19T03:26:41.642Z,8.69
2017-07-19T03:27:09.758Z,8.71
2017-07-19T03:27:37.982Z,8.69
2017-07-19T03:28:06.201Z,8.74
2017-07-19T03:28:34.310Z,8.65
2017-07-19T03:29:02.542Z,8.69
2017-07-19T03:29:30.749Z,8.67
2017-07-19T03:29:58.866Z,8.6
2017-07-19T03:30:26.986Z,8.68
2017-07-19T03:30:55.073Z,8.68
2017-07-19T03:31:23.161Z,8.67
2017-07-19T03:31:51.206Z,8.67
2017-07-19T03:32:19.235Z,8.64
2017-07-19T03:32:47.437Z,8.61
2017-07-19T03:33:15.454Z,8.64
2017-07-19T03:33:43.563Z,8.67
2017-07-19T03:34:11.884Z,8.67
2017-07-19T03:34:39.939Z,8.61
2017-07-19T03:35:08.182Z,8.64
2017-07-19T03:35:36.345Z,8.62
2017-07-19T03:36:04.523Z,8.71
2017-07-19T03:36:32.778Z,8.76
2017-07-19T03:37:00.876Z,8.76
2017-07-19T03:37:29.027Z,8.68
2017-07-19T03:37:57.105Z,8.74
2017-07-19T03:38:25.114Z,8.76
2017-07-19T03:38:53.129Z,8.76
2017-07-19T03:39:21.546Z,8.67
2017-07-19T03:39:49.744Z,8.68
2017-07-19T03:40:17.965Z,8.71
2017-07-19T03:40:46.073Z,8.76
2017-07-19T03:41:14.250Z,8.68
2017-07-19T03:41:42.343Z,8.72
2017-07-19T03:42:10.553Z,8.72
2017-07-19T03:42:38.814Z,8.62
2017-07-19T03:43:06.972Z,8.65
2017-07-19T03:43:35.205Z,8.68
2017-07-19T03:44:03.324Z,8.64
2017-07-19T03:44:31.563Z,8.64
2017-07-19T03:44:59.875Z,8.69
2017-07-19T03:45:28.035Z,8.65
2017-07-19T03:45:56.163Z,8.67
2017-07-19T03:46:24.271Z,8.64
2017-07-19T03:46:52.509Z,8.61
2017-07-19T03:47:20.687Z,8.67
2017-07-19T03:47:48.799Z,8.61
2017-07-19T03:48:16.956Z,8.71
2017-07-19T03:48:45.090Z,8.64
2017-07-19T03:49:13.307Z,8.65
2017-07-19T03:49:41.552Z,8.76
2017-07-19T03:50:09.698Z,8.74
2017-07-19T03:50:37.717Z,8.69
2017-07-19T03:51:05.901Z,8.74
2017-07-19T03:51:34.038Z,8.69
2017-07-19T03:52:02.135Z,8.72
2017-07-19T03:52:30.304Z,8.69
2017-07-19T03:52:58.374Z,8.71
2017-07-19T03:53:26.612Z,8.77
2017-07-19T03:53:54.725Z,8.74
2017-07-19T03:54:23.044Z,8.77
2017-07-19T03:54:51.268Z,8.68
2017-07-19T03:55:19.527Z,8.71
2017-07-19T03:55:47.628Z,8.76
2017-07-19T03:56:15.874Z,8.74
2017-07-19T03:56:43.991Z,8.67
2017-07-19T03:57:12.191Z,8.68
2017-07-19T03:57:40.349Z,8.69
2017-07-19T03:58:08.565Z,8.72
2017-07-19T03:58:36.799Z,8.74
2017-07-19T03:59:05.042Z,8.69
2017-07-19T03:59:33.407Z,8.74
2017-07-19T04:00:01.614Z,8.72
2017-07-19T04:00:29.778Z,8.69
2017-07-19T04:00:57.868Z,8.74
2017-07-19T04:01:26.063Z,8.74
2017-07-19T04:01:54.232Z,8.69
2017-07-19T04:02:22.333Z,8.72
2017-07-19T04:02:50.496Z,8.74
2017-07-19T04:03:18.624Z,8.77
2017-07-19T04:03:46.803Z,8.71
2017-07-19T04:04:14.931Z,8.77
2017-07-19T04:04:43.079Z,8.72
2017-07-19T04:05:11.330Z,8.72
2017-07-19T04:05:39.539Z,8.83
2017-07-19T04:06:07.730Z,8.79
2017-07-19T04:06:35.994Z,8.83
2017-07-19T04:07:04.126Z,8.76
2017-07-19T04:07:32.343Z,8.77
2017-07-19T04:08:00.370Z,8.69
2017-07-19T04:08:28.415Z,8.72
2017-07-19T04:08:56.662Z,8.72
2017-07-19T04:09:24.795Z,8.72
2017-07-19T04:09:52.991Z,8.72
2017-07-19T04:10:21.113Z,8.64
2017-07-19T04:10:49.243Z,8.68
2017-07-19T04:11:17.463Z,8.67
2017-07-19T04:11:45.494Z,8.64
2017-07-19T04:12:13.775Z,8.69
2017-07-19T04:12:41.903Z,8.72
2017-07-19T04:13:09.993Z,8.62
2017-07-19T04:13:38.045Z,8.74
2017-07-19T04:14:06.287Z,8.65
2017-07-19T04:14:34.497Z,8.76
2017-07-19T04:15:02.619Z,8.76
2017-07-19T04:15:30.772Z,8.65
2017-07-19T04:15:59.061Z,8.72
2017-07-19T04:16:27.303Z,8.74
2017-07-19T04:16:55.523Z,8.69
2017-07-19T04:17:23.595Z,8.74
2017-07-19T04:17:51.876Z,8.69
2017-07-19T04:18:20.068Z,8.76
2017-07-19T04:18:48.164Z,8.74
2017-07-19T04:19:16.368Z,8.74
2017-07-19T04:19:44.761Z,8.76
2017-07-19T04:20:12.967Z,8.74
2017-07-19T04:20:41.175Z,8.71
2017-07-19T04:21:09.346Z,8.83
2017-07-19T04:21:37.568Z,8.83
2017-07-19T04:22:05.752Z,8.82
2017-07-19T04:22:33.850Z,8.8
2017-07-19T04:23:02.051Z,8.8
2017-07-19T04:23:30.230Z,8.76
2017-07-19T04:23:58.410Z,8.72
2017-07-19T04:24:26.521Z,8.79
2017-07-19T04:24:54.786Z,8.83
2017-07-19T04:25:22.850Z,8.8
2017-07-19T04:25:50.958Z,8.82
2017-07-19T04:26:19.150Z,8.76
2017-07-19T04:26:47.223Z,8.74
2017-07-19T04:27:15.306Z,8.77
2017-07-19T04:27:43.430Z,8.82
2017-07-19T04:28:11.499Z,8.72
2017-07-19T04:28:39.799Z,8.83
2017-07-19T04:29:08.035Z,8.74
2017-07-19T04:29:35.992Z,8.74
2017-07-19T04:30:04.140Z,8.8
2017-07-19T04:30:32.155Z,8.82
2017-07-19T04:31:00.274Z,8.77
2017-07-19T04:31:28.307Z,8.74
2017-07-19T04:31:56.434Z,8.8
2017-07-19T04:32:24.585Z,8.82
2017-07-19T04:32:52.706Z,8.72
2017-07-19T04:33:20.908Z,8.77
2017-07-19T04:33:49.086Z,8.77
2017-07-19T04:34:17.299Z,8.74
2017-07-19T04:34:45.534Z,8.77
2017-07-19T04:35:13.726Z,8.72
2017-07-19T04:35:41.941Z,8.74
2017-07-19T04:36:10.158Z,8.72
2017-07-19T04:36:38.304Z,8.72
2017-07-19T04:37:06.480Z,8.71
2017-07-19T04:37:34.692Z,8.76
2017-07-19T04:38:02.911Z,8.77
2017-07-19T04:38:31.085Z,8.76
2017-07-19T04:38:59.171Z,8.74
2017-07-19T04:39:27.198Z,8.77
2017-07-19T04:39:55.425Z,8.76
2017-07-19T04:40:23.675Z,8.69
2017-07-19T04:40:51.908Z,8.68
2017-07-19T04:41:20.120Z,8.74
2017-07-19T04:41:48.288Z,8.69
2017-07-19T04:42:16.559Z,8.72
2017-07-19T04:42:44.732Z,8.72
2017-07-19T04:43:12.984Z,8.72
2017-07-19T04:43:41.124Z,8.71
2017-07-19T04:44:09.200Z,8.74
2017-07-19T04:44:37.390Z,8.74
2017-07-19T04:45:05.611Z,8.76
2017-07-19T04:45:33.821Z,8.77
2017-07-19T04:46:01.836Z,8.68
2017-07-19T04:46:30.024Z,8.71
2017-07-19T04:46:58.308Z,8.72
2017-07-19T04:47:26.429Z,8.72
2017-07-19T04:47:54.644Z,8.67
2017-07-19T04:48:22.768Z,8.62
2017-07-19T04:48:50.905Z,8.69
2017-07-19T04:49:18.964Z,8.68
2017-07-19T04:49:47.192Z,8.64
2017-07-19T04:50:15.343Z,8.61
2017-07-19T04:50:43.456Z,8.69
2017-07-19T04:51:11.657Z,8.58
2017-07-19T04:51:39.767Z,8.61
2017-07-19T04:52:07.993Z,8.65
2017-07-19T04:52:36.120Z,8.62
2017-07-19T04:53:04.388Z,8.65
2017-07-19T04:53:32.622Z,8.65
2017-07-19T04:54:00.747Z,8.71
2017-07-19T04:54:28.894Z,8.6
2017-07-19T04:54:57.047Z,8.67
2017-07-19T04:55:25.268Z,8.64
2017-07-19T04:55:53.424Z,8.69
2017-07-19T04:56:21.351Z,8.61
2017-07-19T04:56:49.586Z,8.61
2017-07-19T04:57:17.798Z,8.69
2017-07-19T04:57:45.911Z,8.71
2017-07-19T04:58:14.160Z,8.61
2017-07-19T04:58:42.245Z,8.69
2017-07-19T04:59:10.516Z,8.76
2017-07-19T04:59:38.536Z,8.65
2017-07-19T05:00:06.689Z,8.6
2017-07-19T05:00:34.844Z,8.72
2017-07-19T05:01:03.054Z,8.69
2017-07-19T05:01:31.290Z,8.69
2017-07-19T05:01:59.569Z,8.64
2017-07-19T05:02:27.786Z,8.68
2017-07-19T05:02:55.823Z,8.64
2017-07-19T05:03:23.947Z,8.69
2017-07-19T05:03:51.980Z,8.64
2017-07-19T05:04:19.937Z,8.67
2017-07-19T05:04:48.153Z,8.64
2017-07-19T05:05:16.512Z,8.67
2017-07-19T05:05:44.672Z,8.67
2017-07-19T05:06:12.697Z,8.76
2017-07-19T05:06:40.897Z,8.71
2017-07-19T05:07:09.122Z,8.79
2017-07-19T05:07:37.282Z,8.68
2017-07-19T05:08:05.322Z,8.72
2017-07-19T05:08:33.564Z,8.72
2017-07-19T05:09:01.742Z,8.72
2017-07-19T05:09:29.873Z,8.64
2017-07-19T05:09:58.023Z,8.74
2017-07-19T05:10:26.355Z,8.69
2017-07-19T05:10:54.509Z,8.71
2017-07-19T05:11:22.726Z,8.74
2017-07-19T05:11:50.959Z,8.72
2017-07-19T05:12:19.318Z,8.69
2017-07-19T05:12:47.525Z,8.69
2017-07-19T05:13:15.753Z,8.72
2017-07-19T05:13:43.894Z,8.69
2017-07-19T05:14:12.141Z,8.65
2017-07-19T05:14:40.331Z,8.65
2017-07-19T05:15:08.395Z,8.69
2017-07-19T05:15:36.599Z,8.71
2017-07-19T05:16:04.739Z,8.64
2017-07-19T05:16:32.857Z,8.69
2017-07-19T05:17:01.134Z,8.76
2017-07-19T05:17:29.368Z,8.65
2017-07-19T05:17:57.595Z,8.76
2017-07-19T05:18:25.755Z,8.74
2017-07-19T05:18:53.865Z,8.76
2017-07-19T05:19:22.004Z,8.71
2017-07-19T05:19:50.206Z,8.72
2017-07-19T05:20:18.508Z,8.76
2017-07-19T05:20:46.687Z,8.68
2017-07-19T05:21:14.837Z,8.69
2017-07-19T05:21:43.052Z,8.69
2017-07-19T05:22:11.180Z,8.64
2017-07-19T05:22:39.376Z,8.69
2017-07-19T05:23:07.579Z,8.64
2017-07-19T05:23:35.670Z,8.64
2017-07-19T05:24:03.780Z,8.61
2017-07-19T05:24:32.007Z,8.61
2017-07-19T05:25:00.237Z,8.62
2017-07-19T05:25:28.521Z,8.72
2017-07-19T05:25:56.639Z,8.64
2017-07-19T05:26:24.878Z,8.68
2017-07-19T05:26:53.003Z,8.68
2017-07-19T05:27:21.236Z,8.65
2017-07-19T05:27:49.457Z,8.69
2017-07-19T05:28:17.686Z,8.64
2017-07-19T05:28:45.913Z,8.68
2017-07-19T05:29:14.078Z,8.65
2017-07-19T05:29:42.387Z,8.62
2017-07-19T05:30:10.588Z,8.68
2017-07-19T05:30:38.694Z,8.72
2017-07-19T05:31:06.768Z,8.65
2017-07-19T05:31:34.877Z,8.64
2017-07-19T05:32:03.069Z,8.72
2017-07-19T05:32:31.276Z,8.61
2017-07-19T05:32:59.469Z,8.68
2017-07-19T05:33:27.725Z,8.61
2017-07-19T05:33:55.886Z,8.67
2017-07-19T05:34:24.119Z,8.64
2017-07-19T05:34:52.169Z,8.68
2017-07-19T05:35:20.407Z,8.62
2017-07-19T05:35:48.654Z,8.67
2017-07-19T05:36:16.903Z,8.61
2017-07-19T05:36:45.025Z,8.64
2017-07-19T05:37:13.229Z,8.64
2017-07-19T05:37:41.420Z,8.65
2017-07-19T05:38:09.508Z,8.61
2017-07-19T05:38:37.534Z,8.61
2017-07-19T05:39:05.742Z,8.57
2017-07-19T05:39:33.861Z,8.61
2017-07-19T05:40:01.835Z,8.6
2017-07-19T05:40:30.080Z,8.58
2017-07-19T05:40:58.223Z,8.62
2017-07-19T05:41:26.466Z,8.61
2017-07-19T05:41:54.630Z,8.6
2017-07-19T05:42:22.768Z,8.62
2017-07-19T05:42:50.964Z,8.64
2017-07-19T05:43:19.172Z,8.64
2017-07-19T05:43:47.149Z,8.65
2017-07-19T05:44:15.259Z,8.65
2017-07-19T05:44:43.490Z,8.64
2017-07-19T05:45:11.495Z,8.69
2017-07-19T05:45:39.783Z,8.69
2017-07-19T05:46:07.804Z,8.67
2017-07-19T05:46:35.905Z,8.68
2017-07-19T05:47:04.154Z,8.64
2017-07-19T05:47:32.276Z,8.62
2017-07-19T05:48:00.439Z,8.67
2017-07-19T05:48:28.541Z,8.61
2017-07-19T05:48:56.778Z,8.64
2017-07-19T05:49:24.961Z,8.69
2017-07-19T05:49:53.159Z,8.76
2017-07-19T05:50:21.247Z,8.62
2017-07-19T05:50:49.578Z,8.72
2017-07-19T05:51:17.691Z,8.68
2017-07-19T05:51:45.814Z,8.67
2017-07-19T05:52:14.019Z,8.72
2017-07-19T05:52:42.154Z,8.62
2017-07-19T05:53:10.286Z,8.69
2017-07-19T05:53:38.520Z,8.61
2017-07-19T05:54:06.513Z,8.65
2017-07-19T05:54:34.694Z,8.62
2017-07-19T05:55:02.864Z,8.76
2017-07-19T05:55:30.997Z,8.64
2017-07-19T05:55:59.239Z,8.71
2017-07-19T05:56:27.489Z,8.72
2017-07-19T05:56:55.577Z,8.72
2017-07-19T05:57:23.753Z,8.76
2017-07-19T05:57:51.861Z,8.72
2017-07-19T05:58:20.114Z,8.67
2017-07-19T05:58:48.111Z,8.67
2017-07-19T05:59:16.221Z,8.65
2017-07-19T05:59:44.249Z,8.62
2017-07-19T06:00:12.280Z,8.76
2017-07-19T06:00:40.490Z,8.69
2017-07-19T06:01:08.832Z,8.68
2017-07-19T06:01:37.030Z,8.77
2017-07-19T06:02:05.092Z,8.76
2017-07-19T06:02:33.204Z,8.71
2017-07-19T06:03:01.332Z,8.76
2017-07-19T06:03:29.571Z,8.71
2017-07-19T06:03:57.723Z,8.65
2017-07-19T06:04:25.855Z,8.71
2017-07-19T06:04:53.999Z,8.74
2017-07-19T06:05:22.161Z,8.62
2017-07-19T06:05:50.342Z,8.76
2017-07-19T06:06:18.636Z,8.76
2017-07-19T06:06:46.773Z,8.69
2017-07-19T06:07:14.994Z,8.68
2017-07-19T06:07:43.248Z,8.72
2017-07-19T06:08:11.431Z,8.69
2017-07-19T06:08:39.548Z,8.74
2017-07-19T06:09:07.762Z,8.69
2017-07-19T06:09:35.794Z,8.74
2017-07-19T06:10:04.012Z,8.71
2017-07-19T06:10:32.273Z,8.74
2017-07-19T06:11:00.600Z,8.72
2017-07-19T06:11:28.818Z,8.76
2017-07-19T06:11:57.004Z,8.72
2017-07-19T06:12:25.224Z,8.74
2017-07-19T06:12:53.446Z,8.65
2017-07-19T06:13:21.559Z,8.68
2017-07-19T06:13:49.694Z,8.69
2017-07-19T06:14:17.922Z,8.72
2017-07-19T06:14:46.123Z,8.65
2017-07-19T06:15:14.246Z,8.64